Time;durP1;ratioP1;P1;durP2;ratioP2;P2;SDS_P1;SDS_P2;PMS_P1;PMS_P2;Temp;Humidity;BMP_temperature;BMP_pressure;BME280_temperature;BME280_humidity;BME280_pressure;Samples;Min_cycle;Max_cycle;Signal;HPM_P1;HPM_P2
2021/09/24 00:02:04;;;;;;;17.75;3.90;;;13.30;99.90;;;;;;5093602;28;20044;-73
2021/09/24 00:04:31;;;;;;;15.98;3.47;;;13.30;99.90;;;;;;5094897;28;20040;-73
2021/09/24 00:06:57;;;;;;;16.00;3.70;;;13.30;99.90;;;;;;5095188;28;20036;-73
2021/09/24 00:09:22;;;;;;;18.08;3.47;;;13.30;99.90;;;;;;5094580;28;20059;-73
2021/09/24 00:11:48;;;;;;;15.18;3.90;;;13.20;99.90;;;;;;5094799;28;20391;-73
2021/09/24 00:14:14;;;;;;;25.02;3.65;;;13.30;99.90;;;;;;5094792;28;20039;-73
2021/09/24 00:16:39;;;;;;;20.08;4.50;;;13.30;99.90;;;;;;5094888;28;20036;-73
2021/09/24 00:19:05;;;;;;;15.02;3.70;;;13.30;99.90;;;;;;5093231;28;20040;-73
2021/09/24 00:21:31;;;;;;;18.20;2.92;;;13.30;99.90;;;;;;5094499;28;20040;-73
2021/09/24 00:23:57;;;;;;;21.10;3.60;;;13.30;99.90;;;;;;5094574;28;20036;-73
2021/09/24 00:26:22;;;;;;;15.80;4.60;;;13.30;99.90;;;;;;5093525;28;20051;-73
2021/09/24 00:28:48;;;;;;;12.02;3.10;;;13.30;99.90;;;;;;5094659;28;20051;-73
2021/09/24 00:31:14;;;;;;;14.95;3.42;;;13.30;99.90;;;;;;5094810;28;20476;-73
2021/09/24 00:33:39;;;;;;;17.30;4.05;;;13.30;99.90;;;;;;5093111;28;20043;-73
2021/09/24 00:36:06;;;;;;;21.60;3.72;;;13.30;99.90;;;;;;5093112;28;20079;-73
2021/09/24 00:38:33;;;;;;;18.83;3.63;;;13.30;99.90;;;;;;5094191;28;20492;-73
2021/09/24 00:40:58;;;;;;;12.20;3.05;;;13.40;99.90;;;;;;5094060;28;20036;-73
2021/09/24 00:43:24;;;;;;;14.30;3.83;;;13.40;99.90;;;;;;5094451;28;20032;-73
2021/09/24 00:45:49;;;;;;;24.10;5.10;;;13.40;99.90;;;;;;5094069;28;20081;-73
2021/09/24 00:48:15;;;;;;;18.10;3.50;;;13.40;99.90;;;;;;5094570;28;20051;-73
2021/09/24 00:50:41;;;;;;;23.27;4.68;;;13.50;99.90;;;;;;5094007;28;20040;-73
2021/09/24 00:53:09;;;;;;;17.90;3.70;;;13.40;99.90;;;;;;5094041;28;20040;-73
2021/09/24 00:55:35;;;;;;;26.23;4.18;;;13.40;99.90;;;;;;5075238;28;20040;-73
2021/09/24 00:58:01;;;;;;;21.60;4.70;;;13.40;99.90;;;;;;5094283;28;20545;-73
2021/09/24 01:00:26;;;;;;;13.23;3.20;;;13.50;99.90;;;;;;5093435;28;20044;-73
2021/09/24 01:02:52;;;;;;;17.13;3.35;;;13.50;99.90;;;;;;5093710;28;20056;-73
2021/09/24 01:05:18;;;;;;;19.58;4.47;;;13.50;99.90;;;;;;5093759;28;20036;-73
2021/09/24 01:07:45;;;;;;;13.13;3.85;;;13.50;99.90;;;;;;5094383;28;20046;-73
2021/09/24 01:10:14;;;;;;;16.40;3.13;;;13.50;99.90;;;;;;5093541;28;20456;-75
2021/09/24 01:12:40;;;;;;;21.48;4.00;;;13.50;99.90;;;;;;5093647;28;20449;-75
2021/09/24 01:15:11;;;;;;;21.35;3.85;;;13.50;99.90;;;;;;5094079;28;20050;-75
2021/09/24 01:17:38;;;;;;;16.75;3.30;;;13.60;99.90;;;;;;5092381;28;20051;-75
2021/09/24 01:20:06;;;;;;;15.65;3.63;;;13.60;99.90;;;;;;5093242;28;20059;-73
2021/09/24 01:22:32;;;;;;;17.52;3.00;;;13.60;99.90;;;;;;5093669;28;20032;-73
2021/09/24 01:24:58;;;;;;;12.60;3.17;;;13.60;99.90;;;;;;5092215;28;20040;-73
2021/09/24 01:27:23;;;;;;;19.90;3.60;;;13.60;99.90;;;;;;5092320;28;20047;-73
2021/09/24 01:29:50;;;;;;;18.15;4.18;;;13.60;99.90;;;;;;5093043;28;20081;-73
2021/09/24 01:32:17;;;;;;;15.80;3.25;;;13.70;99.90;;;;;;5093582;28;20040;-73
2021/09/24 01:34:43;;;;;;;14.77;3.58;;;13.60;99.90;;;;;;5093339;28;20127;-73
2021/09/24 01:37:08;;;;;;;19.23;3.80;;;13.70;99.90;;;;;;5092381;28;20067;-73
2021/09/24 01:39:34;;;;;;;20.75;4.30;;;13.70;99.90;;;;;;5091892;28;20040;-73
2021/09/24 01:41:59;;;;;;;19.23;4.38;;;13.70;99.90;;;;;;5093832;28;20043;-73
2021/09/24 01:44:25;;;;;;;14.32;2.78;;;13.70;99.90;;;;;;5093242;28;20365;-73
2021/09/24 01:46:50;;;;;;;16.50;3.15;;;13.70;99.90;;;;;;5093185;28;20044;-73
2021/09/24 01:49:16;;;;;;;26.20;3.58;;;13.70;99.90;;;;;;5093037;28;20115;-72
2021/09/24 01:51:44;;;;;;;13.65;2.90;;;13.70;99.90;;;;;;5091826;28;20048;-72
2021/09/24 01:54:12;;;;;;;1.67;0.45;;;13.70;99.90;;;;;;5093359;28;20036;-72
2021/09/24 01:56:38;;;;;;;19.10;4.47;;;13.70;99.90;;;;;;5092003;28;20138;-73
2021/09/24 01:59:04;;;;;;;16.15;3.20;;;13.70;99.90;;;;;;5093139;28;20474;-73
2021/09/24 02:01:30;;;;;;;19.63;3.72;;;13.70;99.90;;;;;;5093038;28;20040;-73
2021/09/24 02:03:56;;;;;;;20.77;3.97;;;13.80;99.90;;;;;;5093096;28;20036;-73
2021/09/24 02:06:21;;;;;;;18.48;3.95;;;13.80;99.90;;;;;;5093061;28;20101;-73
2021/09/24 02:08:47;;;;;;;20.27;3.90;;;13.70;99.90;;;;;;5095509;28;20051;-73
2021/09/24 02:11:13;;;;;;;9.60;2.83;;;13.80;99.90;;;;;;5095504;28;20044;-73
2021/09/24 02:13:39;;;;;;;17.92;2.97;;;13.80;99.90;;;;;;5095861;28;20044;-73
2021/09/24 02:16:06;;;;;;;20.27;3.40;;;13.80;99.90;;;;;;5097285;28;20032;-73
2021/09/24 02:18:31;;;;;;;15.80;4.38;;;13.80;99.90;;;;;;5096753;28;20044;-73
2021/09/24 02:20:57;;;;;;;16.38;3.67;;;13.80;99.90;;;;;;5096974;28;20039;-73
2021/09/24 02:23:22;;;;;;;15.30;3.20;;;13.80;99.90;;;;;;5095664;28;20044;-73
2021/09/24 02:25:48;;;;;;;18.40;3.90;;;13.80;99.90;;;;;;5096757;28;20075;-73
2021/09/24 02:28:14;;;;;;;17.15;3.40;;;13.90;99.90;;;;;;5096792;28;20472;-73
2021/09/24 02:30:39;;;;;;;19.17;3.90;;;13.90;99.90;;;;;;5096480;28;20036;-73
2021/09/24 02:33:05;;;;;;;18.75;3.05;;;13.90;99.90;;;;;;5096688;28;20067;-75
2021/09/24 02:35:31;;;;;;;14.63;3.17;;;13.90;99.90;;;;;;5096186;28;20062;-76
2021/09/24 02:37:57;;;;;;;18.30;3.58;;;13.90;99.90;;;;;;5097121;28;20472;-76
2021/09/24 02:40:22;;;;;;;19.00;3.10;;;13.90;99.90;;;;;;5096386;28;20123;-76
2021/09/24 02:42:48;;;;;;;16.60;3.20;;;13.90;99.90;;;;;;5095631;28;20040;-76
2021/09/24 02:45:14;;;;;;;16.20;3.03;;;14.00;99.90;;;;;;5095490;28;20392;-76
2021/09/24 02:47:39;;;;;;;22.92;4.55;;;13.90;99.90;;;;;;5096393;28;20050;-75
2021/09/24 02:50:07;;;;;;;15.25;4.32;;;14.00;99.90;;;;;;5094939;28;20127;-75
2021/09/24 02:52:34;;;;;;;18.40;3.80;;;14.00;99.90;;;;;;5096394;28;20407;-75
2021/09/24 02:54:59;;;;;;;18.30;4.20;;;14.00;99.90;;;;;;5097033;28;20062;-76
2021/09/24 02:57:25;;;;;;;16.95;4.10;;;14.00;99.90;;;;;;5096554;28;20040;-76
2021/09/24 02:59:51;;;;;;;24.17;4.68;;;14.00;99.90;;;;;;5096072;28;20040;-76
2021/09/24 03:02:17;;;;;;;14.20;3.88;;;14.00;99.90;;;;;;5096360;28;20038;-76
2021/09/24 03:04:42;;;;;;;22.58;4.47;;;14.00;99.90;;;;;;5096143;28;20078;-76
2021/09/24 03:07:08;;;;;;;18.05;3.45;;;14.00;99.90;;;;;;5096116;28;20040;-76
2021/09/24 03:09:34;;;;;;;14.18;4.03;;;14.10;99.90;;;;;;5096115;28;20047;-73
2021/09/24 03:12:00;;;;;;;18.85;4.30;;;14.10;99.90;;;;;;5095548;28;20465;-73
2021/09/24 03:14:25;;;;;;;21.92;4.70;;;14.10;99.90;;;;;;5095727;28;20138;-73
2021/09/24 03:16:51;;;;;;;23.25;5.07;;;14.10;99.90;;;;;;5095401;28;20036;-73
2021/09/24 03:19:20;;;;;;;16.92;4.22;;;14.10;99.90;;;;;;5094505;28;20040;-73
2021/09/24 03:21:48;;;;;;;21.65;5.13;;;14.10;99.90;;;;;;5095933;28;20044;-73
2021/09/24 03:24:14;;;;;;;17.05;4.47;;;14.20;99.90;;;;;;5096158;28;20817;-73
2021/09/24 03:26:39;;;;;;;15.40;3.95;;;14.10;99.90;;;;;;5077598;28;20122;-73
2021/09/24 03:29:05;;;;;;;21.35;4.60;;;14.20;99.90;;;;;;5093994;28;20044;-73
2021/09/24 03:31:31;;;;;;;14.85;3.45;;;14.20;99.90;;;;;;5095342;28;20035;-73
2021/09/24 03:33:56;;;;;;;18.42;4.18;;;14.20;99.90;;;;;;5095828;28;20040;-73
2021/09/24 03:36:22;;;;;;;17.33;3.38;;;14.20;99.90;;;;;;5094523;28;20119;-73
2021/09/24 03:38:47;;;;;;;20.65;3.50;;;14.20;99.90;;;;;;5095453;28;20040;-73
2021/09/24 03:41:13;;;;;;;14.77;5.07;;;14.20;99.90;;;;;;5094375;28;20460;-73
2021/09/24 03:43:39;;;;;;;19.55;4.10;;;14.20;99.90;;;;;;5095670;28;20062;-73
2021/09/24 03:46:04;;;;;;;23.17;4.03;;;14.20;99.90;;;;;;5094006;28;20086;-73
2021/09/24 03:48:30;;;;;;;17.23;4.22;;;14.30;99.90;;;;;;5094937;28;20044;-76
2021/09/24 03:50:56;;;;;;;10.23;3.50;;;14.20;99.90;;;;;;5095228;28;20404;-76
2021/09/24 03:53:22;;;;;;;14.82;3.60;;;14.20;99.90;;;;;;5095496;28;20827;-76
2021/09/24 03:55:52;;;;;;;20.45;4.38;;;14.30;99.90;;;;;;5095341;28;20047;-76
2021/09/24 03:58:18;;;;;;;16.45;3.38;;;14.30;99.90;;;;;;5095467;28;20550;-75
2021/09/24 04:00:44;;;;;;;9.55;2.97;;;14.30;99.90;;;;;;5094806;28;20373;-76
2021/09/24 04:03:09;;;;;;;12.43;3.05;;;14.30;99.90;;;;;;5095287;28;20114;-75
2021/09/24 04:05:35;;;;;;;19.92;3.45;;;14.30;99.90;;;;;;5095003;28;20036;-75
2021/09/24 04:08:00;;;;;;;14.80;3.28;;;14.30;99.90;;;;;;5094257;28;20040;-76
2021/09/24 04:10:26;;;;;;;10.93;3.15;;;14.30;99.90;;;;;;5094582;28;20036;-76
2021/09/24 04:12:52;;;;;;;12.68;3.33;;;14.30;99.90;;;;;;5094770;28;20537;-76
2021/09/24 04:15:17;;;;;;;12.15;3.65;;;14.40;99.90;;;;;;5095200;28;20475;-76
2021/09/24 04:17:43;;;;;;;15.35;3.10;;;14.40;99.90;;;;;;5094741;28;20434;-75
2021/09/24 04:20:09;;;;;;;12.52;4.05;;;14.40;99.90;;;;;;5094360;28;20051;-75
2021/09/24 04:22:35;;;;;;;12.23;3.65;;;14.40;99.90;;;;;;5094750;28;20495;-75
2021/09/24 04:25:00;;;;;;;14.50;3.63;;;14.40;99.90;;;;;;5094910;28;20084;-75
2021/09/24 04:27:26;;;;;;;16.40;3.20;;;14.40;99.90;;;;;;5094973;28;20036;-75
2021/09/24 04:29:52;;;;;;;11.65;3.95;;;14.40;99.90;;;;;;5094491;28;20071;-76
2021/09/24 04:32:17;;;;;;;10.20;3.20;;;14.40;99.90;;;;;;5094888;28;20141;-76
2021/09/24 04:34:43;;;;;;;10.40;3.38;;;14.40;99.90;;;;;;5094651;28;20122;-76
2021/09/24 04:37:08;;;;;;;14.98;3.42;;;14.50;99.90;;;;;;5094477;28;20075;-76
2021/09/24 04:39:34;;;;;;;11.65;2.80;;;14.50;99.90;;;;;;5093877;28;20097;-76
2021/09/24 04:42:00;;;;;;;10.90;2.72;;;14.50;99.90;;;;;;5094833;28;20043;-76
2021/09/24 04:44:25;;;;;;;13.38;2.90;;;14.50;99.90;;;;;;5093420;28;20040;-75
2021/09/24 04:46:51;;;;;;;9.88;3.20;;;14.50;99.90;;;;;;5094253;28;20036;-76
2021/09/24 04:49:17;;;;;;;14.38;3.15;;;14.50;99.90;;;;;;5093195;28;20048;-76
2021/09/24 04:51:42;;;;;;;11.98;3.17;;;14.50;99.90;;;;;;5094647;28;20385;-76
2021/09/24 04:54:08;;;;;;;11.35;3.30;;;14.50;99.90;;;;;;5094190;28;20036;-75
2021/09/24 04:56:33;;;;;;;12.05;2.78;;;14.50;99.90;;;;;;5094069;28;20040;-75
2021/09/24 04:58:59;;;;;;;15.80;3.38;;;14.60;99.90;;;;;;5093842;28;20032;-75
2021/09/24 05:01:24;;;;;;;11.27;3.28;;;14.60;99.90;;;;;;5093847;28;20484;-75
2021/09/24 05:03:50;;;;;;;15.75;4.28;;;14.60;99.90;;;;;;5092885;28;20381;-75
2021/09/24 05:06:16;;;;;;;13.35;2.90;;;14.60;99.90;;;;;;5092590;28;20067;-75
2021/09/24 05:08:41;;;;;;;15.02;3.05;;;14.50;99.90;;;;;;5093864;28;20047;-75
2021/09/24 05:11:07;;;;;;;11.20;2.92;;;14.60;99.90;;;;;;5094044;28;20036;-75
2021/09/24 05:13:32;;;;;;;13.13;3.80;;;14.60;99.90;;;;;;5093804;28;20035;-75
2021/09/24 05:15:58;;;;;;;8.02;2.78;;;14.60;99.90;;;;;;5092436;28;20472;-75
2021/09/24 05:18:24;;;;;;;13.27;2.95;;;14.60;99.90;;;;;;5093951;28;20040;-76
2021/09/24 05:20:49;;;;;;;12.90;3.30;;;14.60;99.90;;;;;;5093850;28;20101;-75
2021/09/24 05:23:15;;;;;;;12.52;2.92;;;14.60;99.90;;;;;;5092070;28;20044;-75
2021/09/24 05:25:40;;;;;;;9.55;3.03;;;14.60;99.90;;;;;;5093341;28;20035;-75
2021/09/24 05:28:06;;;;;;;9.10;2.60;;;14.60;99.90;;;;;;5092377;28;20071;-73
2021/09/24 05:30:32;;;;;;;10.10;2.55;;;14.60;99.90;;;;;;5091720;28;20068;-74
2021/09/24 05:32:59;;;;;;;16.20;2.72;;;14.60;99.90;;;;;;5093406;28;20044;-74
2021/09/24 05:35:24;;;;;;;11.27;2.88;;;14.60;99.90;;;;;;5091591;28;20746;-75
2021/09/24 05:37:50;;;;;;;8.82;2.92;;;14.60;99.90;;;;;;5092244;28;20111;-75
2021/09/24 05:40:15;;;;;;;16.27;4.05;;;14.60;99.90;;;;;;5093277;28;20098;-74
2021/09/24 05:42:42;;;;;;;10.82;2.67;;;14.70;99.90;;;;;;5092745;28;20369;-74
2021/09/24 05:45:11;;;;;;;12.00;3.80;;;14.70;99.90;;;;;;5093872;28;20036;-74
2021/09/24 05:47:38;;;;;;;11.73;3.30;;;14.70;99.90;;;;;;5093551;28;20473;-74
2021/09/24 05:50:11;;;;;;;10.70;2.90;;;14.70;99.90;;;;;;5093239;28;20036;-74
2021/09/24 05:52:38;;;;;;;13.02;3.45;;;14.70;99.90;;;;;;5093451;28;20058;-75
2021/09/24 05:55:04;;;;;;;18.52;4.00;;;14.70;99.90;;;;;;5093546;28;20419;-75
2021/09/24 05:57:30;;;;;;;10.77;3.67;;;14.70;99.90;;;;;;5093659;28;20094;-74
2021/09/24 05:59:55;;;;;;;10.98;3.60;;;14.70;99.90;;;;;;5092853;28;20080;-74
2021/09/24 06:02:21;;;;;;;13.45;3.65;;;14.80;99.90;;;;;;5093189;28;20450;-74
2021/09/24 06:04:46;;;;;;;17.70;3.92;;;14.80;99.90;;;;;;5093389;28;20085;-74
2021/09/24 06:07:12;;;;;;;12.52;3.53;;;14.80;99.90;;;;;;5091871;28;20068;-74
2021/09/24 06:09:37;;;;;;;13.32;4.00;;;14.80;99.90;;;;;;5093208;28;20039;-75
2021/09/24 06:12:03;;;;;;;11.38;3.80;;;14.80;99.90;;;;;;5093081;28;20496;-75
2021/09/24 06:14:29;;;;;;;21.15;4.25;;;14.80;99.90;;;;;;5091931;28;20081;-75
2021/09/24 06:16:55;;;;;;;8.35;3.92;;;14.80;99.90;;;;;;5092849;28;20119;-74
2021/09/24 06:19:20;;;;;;;9.45;3.78;;;14.80;99.90;;;;;;5091446;28;20123;-75
2021/09/24 06:21:46;;;;;;;13.73;4.50;;;14.90;99.90;;;;;;5091697;28;20040;-74
2021/09/24 06:24:12;;;;;;;12.23;4.03;;;14.90;99.90;;;;;;5093001;28;20101;-74
2021/09/24 06:26:37;;;;;;;11.50;5.15;;;14.90;99.90;;;;;;5093229;28;20082;-74
2021/09/24 06:29:03;;;;;;;15.13;4.50;;;15.00;99.90;;;;;;5092526;28;20484;-74
2021/09/24 06:31:29;;;;;;;14.52;4.88;;;15.00;99.90;;;;;;5091625;28;20123;-74
2021/09/24 06:33:55;;;;;;;14.50;4.45;;;15.00;99.90;;;;;;5093142;28;20465;-74
2021/09/24 06:36:21;;;;;;;12.00;4.22;;;15.00;99.90;;;;;;5093002;28;20440;-74
2021/09/24 06:38:47;;;;;;;14.60;5.20;;;15.00;99.90;;;;;;5092674;28;20044;-74
2021/09/24 06:41:13;;;;;;;13.52;5.32;;;15.10;99.90;;;;;;5092787;28;20040;-75
2021/09/24 06:43:39;;;;;;;19.65;5.75;;;15.10;99.90;;;;;;5093247;28;20044;-74
2021/09/24 06:46:04;;;;;;;13.85;4.93;;;15.20;99.90;;;;;;5093437;28;20040;-74
2021/09/24 06:48:30;;;;;;;22.45;5.05;;;15.10;99.90;;;;;;5092421;28;20048;-75
2021/09/24 06:50:56;;;;;;;13.70;4.40;;;15.10;99.90;;;;;;5091386;28;20044;-73
2021/09/24 06:53:21;;;;;;;13.05;5.00;;;15.10;99.90;;;;;;5091742;28;20036;-74
2021/09/24 06:55:47;;;;;;;13.23;4.57;;;15.10;99.90;;;;;;5096626;28;20065;-74
2021/09/24 06:58:12;;;;;;;10.45;4.72;;;15.10;99.90;;;;;;5096727;28;20388;-74
2021/09/24 07:00:38;;;;;;;18.25;4.93;;;15.10;99.90;;;;;;5095806;28;20093;-74
2021/09/24 07:03:03;;;;;;;13.38;4.03;;;15.20;99.90;;;;;;5094982;28;20032;-74
2021/09/24 07:05:29;;;;;;;13.75;4.55;;;15.20;99.90;;;;;;5095044;28;20036;-74
2021/09/24 07:07:55;;;;;;;10.85;4.30;;;15.20;99.90;;;;;;5096366;28;20078;-74
2021/09/24 07:10:20;;;;;;;13.80;4.32;;;15.20;99.90;;;;;;5095666;28;20117;-74
2021/09/24 07:12:46;;;;;;;12.07;4.68;;;15.20;99.90;;;;;;5096282;28;20078;-72
2021/09/24 07:15:12;;;;;;;15.05;5.18;;;15.30;99.90;;;;;;5094589;28;20043;-71
2021/09/24 07:17:38;;;;;;;21.65;5.40;;;15.30;99.90;;;;;;5095696;28;20118;-71
2021/09/24 07:20:05;;;;;;;12.40;4.85;;;15.30;99.90;;;;;;5095179;28;20044;-72
2021/09/24 07:22:31;;;;;;;15.82;5.90;;;15.30;99.90;;;;;;5094728;28;20050;-71
2021/09/24 07:24:57;;;;;;;12.77;4.93;;;15.40;99.90;;;;;;5095695;28;20040;-71
2021/09/24 07:27:22;;;;;;;11.32;4.60;;;15.40;99.90;;;;;;5095717;28;20068;-72
2021/09/24 07:29:49;;;;;;;18.83;5.15;;;15.40;99.90;;;;;;5095416;28;20086;-71
2021/09/24 07:32:16;;;;;;;14.88;5.53;;;15.50;99.90;;;;;;5096295;28;20047;-71
2021/09/24 07:34:43;;;;;;;11.25;5.10;;;15.50;99.90;;;;;;5095455;28;20472;-71
2021/09/24 07:37:09;;;;;;;12.75;4.75;;;15.40;99.90;;;;;;5095840;28;20047;-71
2021/09/24 07:39:35;;;;;;;14.95;4.43;;;15.50;99.90;;;;;;5095211;28;20391;-72
2021/09/24 07:42:01;;;;;;;15.57;5.32;;;15.50;99.90;;;;;;5095240;28;20036;-71
2021/09/24 07:44:26;;;;;;;11.15;5.30;;;15.50;99.90;;;;;;5093982;28;20048;-71
2021/09/24 07:46:52;;;;;;;16.52;5.30;;;15.60;99.90;;;;;;5094397;28;20071;-71
2021/09/24 07:49:18;;;;;;;17.42;5.82;;;15.60;99.90;;;;;;5095010;28;20590;-72
2021/09/24 07:51:43;;;;;;;12.90;5.45;;;15.60;99.90;;;;;;5093940;28;20058;-71
2021/09/24 07:54:09;;;;;;;14.85;5.60;;;15.60;99.90;;;;;;5095485;28;20132;-71
2021/09/24 07:56:35;;;;;;;18.92;5.32;;;15.70;99.90;;;;;;5094935;28;20047;-71
2021/09/24 07:59:00;;;;;;;14.82;6.25;;;15.70;99.90;;;;;;5094930;28;20036;-71
2021/09/24 08:01:26;;;;;;;15.60;5.47;;;15.70;99.90;;;;;;5093789;28;20065;-71
2021/09/24 08:03:52;;;;;;;11.82;5.32;;;15.80;99.90;;;;;;5095096;28;20040;-71
2021/09/24 08:06:19;;;;;;;20.42;5.35;;;15.80;99.90;;;;;;5093531;28;20040;-71
2021/09/24 08:08:46;;;;;;;13.63;4.95;;;15.80;99.90;;;;;;5094683;28;20044;-72
2021/09/24 08:11:12;;;;;;;17.15;5.63;;;15.80;99.90;;;;;;5094552;28;20036;-71
2021/09/24 08:13:38;;;;;;;12.38;5.13;;;15.80;99.90;;;;;;5095198;28;20039;-71
2021/09/24 08:16:03;;;;;;;13.82;5.22;;;15.90;99.90;;;;;;5094654;28;20038;-71
2021/09/24 08:18:29;;;;;;;13.85;5.72;;;15.90;99.90;;;;;;5093180;28;20469;-72
2021/09/24 08:20:55;;;;;;;14.40;5.05;;;15.90;99.90;;;;;;5094716;28;20036;-72
2021/09/24 08:23:21;;;;;;;14.50;5.00;;;15.90;99.90;;;;;;5094580;28;20036;-71
2021/09/24 08:25:48;;;;;;;15.82;5.28;;;15.90;99.90;;;;;;5094973;28;20101;-71
2021/09/24 08:28:14;;;;;;;14.15;5.63;;;16.00;99.90;;;;;;5093191;28;20044;-71
2021/09/24 08:30:40;;;;;;;14.45;5.20;;;16.00;99.90;;;;;;5094238;28;20369;-71
2021/09/24 08:33:06;;;;;;;14.55;4.95;;;16.00;99.90;;;;;;5094517;28;20039;-71
2021/09/24 08:35:32;;;;;;;12.55;4.90;;;16.10;99.90;;;;;;5094333;28;20071;-72
2021/09/24 08:37:57;;;;;;;15.15;5.10;;;16.10;99.90;;;;;;5094664;28;20039;-71
2021/09/24 08:40:26;;;;;;;15.07;5.30;;;16.00;99.90;;;;;;5094537;28;20044;-72
2021/09/24 08:42:51;;;;;;;17.50;5.68;;;16.00;99.90;;;;;;5093990;28;20089;-71
2021/09/24 08:45:23;;;;;;;12.57;5.72;;;16.10;99.90;;;;;;5094239;28;20349;-71
2021/09/24 08:47:51;;;;;;;13.15;5.30;;;16.10;99.90;;;;;;5092975;28;20032;-71
2021/09/24 08:50:16;;;;;;;10.45;4.93;;;16.10;99.90;;;;;;5093770;28;20472;-71
2021/09/24 08:52:42;;;;;;;12.30;5.25;;;16.10;99.90;;;;;;5093204;28;20048;-72
2021/09/24 08:55:10;;;;;;;11.82;5.50;;;16.10;99.90;;;;;;5094506;28;20044;-71
2021/09/24 08:57:36;;;;;;;14.07;5.13;;;16.20;99.90;;;;;;5094823;28;20046;-72
2021/09/24 09:00:06;;;;;;;13.52;5.32;;;16.20;99.90;;;;;;5093808;28;20075;-71
2021/09/24 09:02:58;;;;;;;13.15;5.15;;;16.30;99.90;;;;;;5093755;28;20484;-71
2021/09/24 09:05:26;;;;;;;17.00;6.40;;;16.20;99.90;;;;;;5094259;28;20118;-71
2021/09/24 09:08:17;;;;;;;19.35;6.10;;;16.20;99.90;;;;;;5093743;28;20039;-71
2021/09/24 09:10:57;;;;;;;16.60;6.35;;;16.30;99.90;;;;;;5093168;28;20059;-71
2021/09/24 09:13:34;;;;;;;11.23;5.10;;;16.30;99.90;;;;;;5094448;28;20062;-72
2021/09/24 09:16:07;;;;;;;13.35;5.57;;;16.30;99.90;;;;;;5093539;28;20118;-71
2021/09/24 09:18:35;;;;;;;17.88;5.80;;;16.30;99.90;;;;;;5091710;28;20048;-71
2021/09/24 09:21:04;;;;;;;9.07;5.32;;;16.30;99.90;;;;;;5094021;28;20460;-71
2021/09/24 09:23:32;;;;;;;12.65;5.68;;;16.40;99.90;;;;;;5093538;28;20044;-71
2021/09/24 09:26:01;;;;;;;16.25;5.57;;;16.50;99.90;;;;;;5094054;28;20036;-71
2021/09/24 09:28:38;;;;;;;14.50;6.28;;;16.50;99.90;;;;;;5092281;28;20503;-71
2021/09/24 09:31:29;;;;;;;12.77;4.88;;;16.50;99.90;;;;;;5092145;28;20042;-71
2021/09/24 09:34:00;;;;;;;14.90;4.95;;;16.40;99.90;;;;;;5092344;28;20086;-71
2021/09/24 09:36:41;;;;;;;18.33;5.60;;;16.40;99.90;;;;;;5093371;28;20079;-72
2021/09/24 09:39:14;;;;;;;14.73;4.72;;;16.50;99.90;;;;;;5075186;28;20399;-71
2021/09/24 09:41:48;;;;;;;11.82;5.07;;;16.50;99.90;;;;;;5093278;28;20139;-72
2021/09/24 09:44:24;;;;;;;12.75;5.45;;;16.60;99.90;;;;;;5093347;28;20119;-71
2021/09/24 09:46:50;;;;;;;18.55;5.50;;;16.60;99.90;;;;;;5093237;28;20036;-71
2021/09/24 09:49:16;;;;;;;16.33;4.88;;;16.70;99.90;;;;;;5093272;28;20040;-71
2021/09/24 09:51:44;;;;;;;14.82;4.65;;;16.80;99.90;;;;;;5093025;28;20044;-71
2021/09/24 09:54:12;;;;;;;15.02;5.20;;;16.80;99.90;;;;;;5091900;28;20052;-71
2021/09/24 09:56:39;;;;;;;12.63;4.95;;;16.70;99.90;;;;;;5091931;28;20096;-71
2021/09/24 09:59:24;;;;;;;8.75;4.60;;;16.90;99.90;;;;;;5092695;28;20047;-71
2021/09/24 10:02:17;;;;;;;6.85;4.30;;;16.90;99.90;;;;;;5092959;28;20043;-71
2021/09/24 10:04:51;;;;;;;10.40;4.47;;;16.90;99.90;;;;;;5093094;28;20127;-71
2021/09/24 10:07:24;;;;;;;13.73;4.50;;;16.90;99.90;;;;;;5093043;28;20119;-71
2021/09/24 10:10:03;;;;;;;13.13;4.53;;;17.00;99.90;;;;;;5093075;28;20468;-71
2021/09/24 10:12:28;;;;;;;9.88;4.65;;;17.00;99.90;;;;;;5074744;28;20051;-71
2021/09/24 10:14:54;;;;;;;11.90;4.43;;;17.10;99.90;;;;;;5093029;28;20037;-71
2021/09/24 10:17:21;;;;;;;15.27;5.50;;;17.20;99.90;;;;;;5093003;28;20540;-71
2021/09/24 10:19:48;;;;;;;12.15;4.22;;;17.20;99.90;;;;;;5074870;28;20036;-71
2021/09/24 10:22:14;;;;;;;9.70;4.00;;;17.30;99.90;;;;;;5092941;28;20048;-71
2021/09/24 10:24:40;;;;;;;10.35;4.43;;;17.20;99.90;;;;;;5093111;28;20039;-71
2021/09/24 10:27:10;;;;;;;8.73;4.15;;;17.30;99.90;;;;;;5092840;28;20044;-71
2021/09/24 10:29:40;;;;;;;8.18;4.05;;;17.30;99.90;;;;;;5096419;28;20069;-73
2021/09/24 10:32:15;;;;;;;8.45;4.32;;;17.30;99.90;;;;;;5097424;28;20487;-73
2021/09/24 10:35:08;;;;;;;10.05;5.03;;;17.40;99.90;;;;;;5097211;28;20028;-71
2021/09/24 10:37:40;;;;;;;13.45;4.32;;;17.40;99.90;;;;;;5096237;28;20044;-70
2021/09/24 10:40:21;;;;;;;14.75;4.95;;;17.50;99.90;;;;;;5077500;28;20041;-71
2021/09/24 10:42:51;;;;;;;8.85;4.82;;;17.50;99.90;;;;;;5076138;28;20078;-71
2021/09/24 10:45:21;;;;;;;11.70;4.35;;;17.50;99.90;;;;;;5075277;28;20044;-70
2021/09/24 10:47:54;;;;;;;10.27;4.95;;;17.60;99.90;;;;;;5074995;28;20075;-71
2021/09/24 10:50:28;;;;;;;13.10;4.68;;;17.70;99.90;;;;;;5075680;28;20044;-71
2021/09/24 10:53:22;;;;;;;14.32;4.60;;;17.80;99.90;;;;;;5074925;28;20050;-71
2021/09/24 10:55:54;;;;;;;9.55;5.00;;;17.90;99.90;;;;;;5075235;28;20078;-71
2021/09/24 10:58:22;;;;;;;11.82;4.80;;;18.00;99.90;;;;;;5075949;28;20119;-70
2021/09/24 11:00:50;;;;;;;11.43;4.97;;;18.00;99.90;;;;;;5073328;28;20094;-71
2021/09/24 11:03:22;;;;;;;10.98;5.40;;;18.10;99.90;;;;;;5075990;28;20040;-70
2021/09/24 11:06:11;;;;;;;8.95;3.95;;;18.20;99.90;;;;;;5075959;28;20399;-71
2021/09/24 11:08:41;;;;;;;11.07;4.38;;;18.20;99.90;;;;;;5074947;28;20090;-71
2021/09/24 11:11:20;;;;;;;10.75;5.00;;;18.30;99.90;;;;;;5075704;28;20033;-71
2021/09/24 11:13:54;;;;;;;10.75;5.15;;;18.40;99.90;;;;;;5074495;28;20040;-73
2021/09/24 11:16:41;;;;;;;13.32;5.18;;;18.50;99.90;;;;;;5075636;28;20037;-73
2021/09/24 11:19:06;;;;;;;11.23;5.18;;;18.50;99.90;;;;;;5075156;28;20055;-72
2021/09/24 11:21:38;;;;;;;11.00;4.85;;;18.50;99.90;;;;;;5075424;28;20041;-72
2021/09/24 11:24:26;;;;;;;13.00;4.82;;;18.60;99.90;;;;;;5075570;28;20084;-71
2021/09/24 11:26:57;;;;;;;9.88;4.43;;;18.60;99.90;;;;;;5075566;28;20036;-74
2021/09/24 11:29:23;;;;;;;12.02;5.25;;;18.70;99.90;;;;;;5075074;28;20503;-73
2021/09/24 11:32:29;;;;;;;9.02;5.45;;;18.60;99.90;;;;;;5075244;28;20091;-73
2021/09/24 11:34:55;;;;;;;14.63;5.40;;;18.70;99.90;;;;;;5074953;28;20123;-72
2021/09/24 11:37:30;;;;;;;9.00;5.32;;;18.70;99.90;;;;;;5075174;28;20036;-72
2021/09/24 11:40:05;;;;;;;10.38;5.18;;;18.70;99.90;;;;;;5073850;28;20392;-72
2021/09/24 11:42:37;;;;;;;13.38;5.47;;;18.80;99.90;;;;;;5075207;28;20526;-72
2021/09/24 11:45:06;;;;;;;11.82;6.03;;;18.90;99.90;;;;;;5075506;28;20039;-72
2021/09/24 11:47:40;;;;;;;8.98;5.55;;;19.00;99.90;;;;;;5075284;28;20484;-72
2021/09/24 11:50:14;;;;;;;12.82;4.88;;;18.90;99.90;;;;;;5074862;28;20044;-72
2021/09/24 11:52:48;;;;;;;12.10;5.28;;;18.90;99.90;;;;;;5073784;28;20048;-72
2021/09/24 11:55:37;;;;;;;19.67;5.88;;;19.00;99.90;;;;;;5073932;28;20049;-72
2021/09/24 11:58:14;;;;;;;10.30;5.22;;;19.00;99.90;;;;;;5074010;28;20040;-72
2021/09/24 12:00:48;;;;;;;10.98;4.55;;;19.20;99.90;;;;;;5074414;28;20567;-73
2021/09/24 12:03:22;;;;;;;10.63;4.32;;;19.20;99.90;;;;;;5074879;28;20510;-72
2021/09/24 12:05:50;;;;;;;11.55;3.88;;;19.30;99.90;;;;;;5075097;28;20036;-71
2021/09/24 12:08:18;;;;;;;10.88;4.68;;;19.40;99.90;;;;;;5073863;28;20079;-72
2021/09/24 12:10:44;;;;;;;10.75;4.03;;;19.40;99.90;;;;;;5074998;28;20040;-72
2021/09/24 12:13:15;;;;;;;10.05;3.78;;;19.30;99.90;;;;;;5074742;28;20563;-77
2021/09/24 12:15:55;;;;;;;7.22;4.35;;;19.30;99.90;;;;;;5074456;28;20480;-74
2021/09/24 12:18:22;;;;;;;8.32;3.78;;;19.30;99.90;;;;;;5074649;28;20036;-73
2021/09/24 12:20:59;;;;;;;9.88;4.68;;;19.30;99.90;;;;;;5074131;28;20079;-73
2021/09/24 12:23:25;;;;;;;7.00;3.83;;;19.20;99.90;;;;;;5073975;28;20041;-73
2021/09/24 12:25:58;;;;;;;9.40;3.45;;;19.20;99.90;;;;;;5074702;28;20477;-73
2021/09/24 12:28:24;;;;;;;8.52;4.88;;;19.20;99.90;;;;;;5074240;28;20388;-74
2021/09/24 12:30:50;;;;;;;6.05;4.00;;;19.40;99.90;;;;;;5074214;28;20036;-73
2021/09/24 12:33:17;;;;;;;6.40;3.97;;;19.40;99.90;;;;;;5074456;28;20029;-73
2021/09/24 12:36:07;;;;;;;9.20;4.25;;;19.60;99.90;;;;;;5073078;28;20524;-73
2021/09/24 12:38:36;;;;;;;10.18;4.25;;;19.70;99.90;;;;;;5072486;28;20040;-74
2021/09/24 12:41:14;;;;;;;8.68;4.35;;;19.60;99.90;;;;;;5074109;28;20456;-74
2021/09/24 12:43:41;;;;;;;10.52;4.15;;;19.60;99.90;;;;;;5074246;28;20111;-74